Terminal Aerodrome Forecast
Issued by NWS

Current Version | Previous Version | Text Only | Print | Product List | Glossary Off
Versions: 1 2 3 4 5 6 7 8 9 10 11 12 13 14 15 16

016
FTUS41 KILN 161736
TAFLCK
TAF
KLCK 161736Z 1618/1718 19005KT P6SM SCT040 BKN250
     FM170200 14003KT P6SM BKN100
      TEMPO 1709/1712 5SM BR
     FM171500 19008KT P6SM VCSH BKN050=

USA.gov is the U.S. government's official web portal to all federal, state and local government web resources and services.